createdAt,value
2023-02-17T00:00:54.564Z,12.00
2023-02-17T00:03:22.907Z,12.00
2023-02-17T00:05:51.262Z,12.00
2023-02-17T00:08:19.631Z,12.00
2023-02-17T00:10:57.033Z,12.00
2023-02-17T00:13:25.222Z,12.00
2023-02-17T00:15:53.355Z,12.10
2023-02-17T00:18:21.532Z,12.00
2023-02-17T00:20:49.508Z,12.00
2023-02-17T00:23:17.577Z,12.00
2023-02-17T00:25:45.588Z,12.10
2023-02-17T00:28:15.014Z,12.10
2023-02-17T00:30:43.128Z,12.10
2023-02-17T00:33:11.117Z,12.10
2023-02-17T00:35:40.648Z,12.10
2023-02-17T00:38:10.035Z,12.20
2023-02-17T00:40:39.039Z,12.20
2023-02-17T00:43:07.139Z,12.30
2023-02-17T00:45:36.563Z,12.20
2023-02-17T00:48:04.759Z,12.00
2023-02-17T00:50:32.893Z,12.00
2023-02-17T00:53:00.912Z,11.90
2023-02-17T00:55:29.050Z,11.90
2023-02-17T00:57:57.180Z,12.00
2023-02-17T01:00:25.327Z,12.00
2023-02-17T01:02:56.103Z,11.90
2023-02-17T01:05:24.478Z,11.90
2023-02-17T01:07:52.476Z,12.00
2023-02-17T01:10:20.654Z,11.90
2023-02-17T01:12:48.887Z,11.80
2023-02-17T01:15:16.885Z,11.80
2023-02-17T01:17:44.923Z,11.80
2023-02-17T01:20:14.596Z,11.80
2023-02-17T01:22:42.752Z,11.80
2023-02-17T01:25:11.189Z,11.70
2023-02-17T01:27:39.342Z,11.70
2023-02-17T01:30:08.097Z,11.70
2023-02-17T01:32:37.847Z,11.70
2023-02-17T01:35:06.220Z,11.70
2023-02-17T01:37:38.081Z,11.80
2023-02-17T01:40:06.651Z,11.80
2023-02-17T01:42:34.718Z,11.80
2023-02-17T01:45:21.558Z,11.80
2023-02-17T01:47:52.477Z,11.80
2023-02-17T01:50:22.215Z,11.90
2023-02-17T01:52:52.336Z,11.90
2023-02-17T01:55:21.184Z,11.80
2023-02-17T01:57:50.410Z,12.00
2023-02-17T02:00:19.759Z,11.90
2023-02-17T02:02:49.600Z,12.00
2023-02-17T02:05:19.919Z,11.90
2023-02-17T02:07:48.657Z,11.80
2023-02-17T02:10:19.166Z,11.80
2023-02-17T02:12:47.543Z,11.80
2023-02-17T02:15:17.001Z,11.90
2023-02-17T02:17:53.670Z,11.80
2023-02-17T02:20:34.793Z,11.80
2023-02-17T02:23:17.074Z,11.80
2023-02-17T02:26:03.408Z,11.90
2023-02-17T02:28:35.860Z,11.90
2023-02-17T02:31:08.176Z,11.90
2023-02-17T02:33:40.273Z,11.80
2023-02-17T02:36:12.567Z,11.80
2023-02-17T02:38:42.974Z,11.80
2023-02-17T02:41:14.017Z,11.80
2023-02-17T02:43:42.820Z,11.80
2023-02-17T02:46:11.220Z,11.80
2023-02-17T02:48:40.808Z,11.80
2023-02-17T02:51:13.753Z,11.70
2023-02-17T02:53:48.470Z,11.70
2023-02-17T02:56:22.513Z,11.80
2023-02-17T02:58:58.482Z,11.80
2023-02-17T03:01:32.654Z,11.80
2023-02-17T03:04:07.567Z,11.80
2023-02-17T03:06:38.436Z,11.90
2023-02-17T03:09:08.801Z,11.80
2023-02-17T03:11:36.868Z,11.80
2023-02-17T03:14:06.650Z,11.80
2023-02-17T03:16:35.470Z,11.70
2023-02-17T03:19:05.393Z,11.60
2023-02-17T03:21:38.009Z,11.60
2023-02-17T03:24:08.496Z,11.70
2023-02-17T03:26:36.583Z,11.70
2023-02-17T03:29:04.760Z,11.70
2023-02-17T03:31:35.358Z,11.60
2023-02-17T03:34:05.316Z,11.50
2023-02-17T03:36:33.317Z,11.50
2023-02-17T03:39:01.667Z,11.50
2023-02-17T03:41:30.233Z,11.50
2023-02-17T03:43:58.221Z,11.50
2023-02-17T03:46:26.243Z,11.50
2023-02-17T03:48:54.289Z,11.50
2023-02-17T03:51:24.461Z,11.40
2023-02-17T03:53:53.410Z,11.40
2023-02-17T03:56:21.653Z,11.40
2023-02-17T03:58:49.678Z,11.40
2023-02-17T04:01:17.648Z,11.40
2023-02-17T04:03:46.059Z,11.50
2023-02-17T04:06:14.263Z,11.50
2023-02-17T04:08:43.782Z,11.60
2023-02-17T04:11:12.197Z,11.50
2023-02-17T04:13:41.006Z,11.50
2023-02-17T04:16:09.806Z,11.40
2023-02-17T04:18:38.216Z,11.40
2023-02-17T04:21:06.525Z,11.40
2023-02-17T04:23:35.214Z,11.30
2023-02-17T04:26:05.310Z,11.30
2023-02-17T04:28:33.661Z,11.40
2023-02-17T04:31:02.306Z,11.40
2023-02-17T04:33:30.878Z,11.40
2023-02-17T04:36:00.364Z,11.50
2023-02-17T04:38:29.086Z,11.50
2023-02-17T04:40:57.870Z,11.50
2023-02-17T04:43:27.944Z,11.50
2023-02-17T04:45:56.344Z,11.50
2023-02-17T04:48:24.422Z,11.60
2023-02-17T04:50:52.859Z,11.60
2023-02-17T04:53:21.033Z,11.60
2023-02-17T04:55:49.568Z,11.60
2023-02-17T04:58:17.520Z,11.50
2023-02-17T05:00:47.189Z,11.50
2023-02-17T05:03:15.155Z,11.50
2023-02-17T05:05:43.154Z,11.50
2023-02-17T05:08:11.168Z,11.50
2023-02-17T05:10:39.199Z,11.50
2023-02-17T05:13:07.361Z,11.40
2023-02-17T05:15:35.749Z,11.40
2023-02-17T05:18:05.410Z,11.50
2023-02-17T05:20:33.533Z,11.50
2023-02-17T05:23:01.527Z,11.50
2023-02-17T05:25:29.589Z,11.40
2023-02-17T05:27:57.872Z,11.40
2023-02-17T05:30:26.193Z,11.40
2023-02-17T05:32:54.211Z,11.40
2023-02-17T05:35:23.570Z,11.40
2023-02-17T05:37:52.090Z,11.30
2023-02-17T05:40:20.369Z,11.40
2023-02-17T05:42:48.602Z,11.30
2023-02-17T05:45:16.610Z,11.30
2023-02-17T05:47:45.250Z,11.30
2023-02-17T05:50:13.555Z,11.30
2023-02-17T05:52:43.308Z,11.20
2023-02-17T05:55:11.454Z,11.20
2023-02-17T05:57:39.439Z,11.30
2023-02-17T06:00:08.181Z,11.30
2023-02-17T06:02:42.302Z,11.30
2023-02-17T06:05:10.512Z,11.20
2023-02-17T06:07:38.752Z,11.20
2023-02-17T06:10:09.175Z,11.20
2023-02-17T06:12:37.472Z,11.20
2023-02-17T06:15:05.716Z,11.20
2023-02-17T06:17:34.125Z,11.30
2023-02-17T06:20:02.112Z,11.40
2023-02-17T06:22:30.269Z,11.40
2023-02-17T06:24:58.301Z,11.30
2023-02-17T06:27:27.939Z,11.20
2023-02-17T06:29:56.577Z,11.20
2023-02-17T06:32:24.694Z,11.20
2023-02-17T06:34:52.744Z,11.20
2023-02-17T06:37:21.011Z,11.20
2023-02-17T06:39:49.189Z,11.30
2023-02-17T06:42:17.435Z,11.30
2023-02-17T06:44:48.182Z,11.20
2023-02-17T06:47:16.431Z,11.30
2023-02-17T06:49:44.586Z,11.40
2023-02-17T06:52:12.766Z,11.50
2023-02-17T06:54:40.870Z,11.60
2023-02-17T06:57:08.960Z,11.60
2023-02-17T06:59:37.097Z,11.60
2023-02-17T07:02:06.835Z,11.60
2023-02-17T07:04:35.085Z,11.50
2023-02-17T07:07:03.214Z,11.50
2023-02-17T07:09:31.262Z,11.50
2023-02-17T07:11:59.278Z,11.50
2023-02-17T07:14:27.463Z,11.60
2023-02-17T07:16:56.192Z,11.60
2023-02-17T07:19:26.147Z,11.60
2023-02-17T07:21:54.520Z,11.50
2023-02-17T07:24:22.693Z,11.70
2023-02-17T07:26:50.841Z,11.70
2023-02-17T07:29:18.869Z,11.70
2023-02-17T07:31:46.980Z,11.70
2023-02-17T07:34:15.293Z,11.70
2023-02-17T07:36:45.051Z,11.80
2023-02-17T07:39:13.185Z,11.80
2023-02-17T07:41:41.412Z,11.80
2023-02-17T07:44:11.054Z,11.80
2023-02-17T07:46:41.078Z,11.70
2023-02-17T07:49:09.096Z,11.60
2023-02-17T07:51:37.045Z,11.50
2023-02-17T07:54:06.684Z,11.50
2023-02-17T07:56:35.152Z,11.50
2023-02-17T07:59:03.435Z,11.60
2023-02-17T08:01:31.902Z,11.60
2023-02-17T08:04:00.415Z,11.70
2023-02-17T08:06:28.537Z,11.70
2023-02-17T08:09:14.293Z,11.70
2023-02-17T08:12:01.281Z,11.60
2023-02-17T08:14:30.550Z,11.50
2023-02-17T08:16:58.860Z,11.50
2023-02-17T08:19:33.827Z,11.40
2023-02-17T08:22:11.158Z,11.30
2023-02-17T08:24:39.252Z,11.30
2023-02-17T08:27:09.036Z,11.20
2023-02-17T08:29:37.080Z,11.20
2023-02-17T08:32:05.428Z,11.20
2023-02-17T08:34:34.663Z,11.20
2023-02-17T08:37:03.185Z,11.20
2023-02-17T08:39:31.677Z,11.30
2023-02-17T08:42:00.244Z,11.30
2023-02-17T08:44:29.776Z,11.30
2023-02-17T08:46:58.086Z,11.30
2023-02-17T08:49:27.026Z,11.40
2023-02-17T08:51:55.219Z,11.40
2023-02-17T08:54:23.263Z,11.30
2023-02-17T08:56:51.362Z,11.30
2023-02-17T08:59:19.509Z,11.40
2023-02-17T09:01:49.059Z,11.40
2023-02-17T09:04:17.530Z,11.40
2023-02-17T09:06:47.256Z,11.40
2023-02-17T09:09:16.741Z,11.40
2023-02-17T09:11:44.960Z,11.40
2023-02-17T09:14:13.719Z,11.50
2023-02-17T09:16:41.883Z,11.50
2023-02-17T09:19:11.508Z,11.40
2023-02-17T09:21:39.837Z,11.50
2023-02-17T09:24:08.260Z,11.50
2023-02-17T09:26:36.739Z,11.50
2023-02-17T09:29:05.037Z,11.50
2023-02-17T09:31:35.208Z,11.50
2023-02-17T09:34:03.805Z,11.40
2023-02-17T09:36:34.155Z,11.60
2023-02-17T09:39:02.815Z,11.50
2023-02-17T09:41:35.552Z,11.40
2023-02-17T09:44:03.684Z,11.30
2023-02-17T09:46:33.161Z,11.40
2023-02-17T09:49:02.671Z,11.40
2023-02-17T09:51:33.943Z,11.50
2023-02-17T09:54:07.707Z,11.50
2023-02-17T09:56:38.008Z,11.40
2023-02-17T09:59:09.279Z,11.30
2023-02-17T10:01:37.968Z,11.40
2023-02-17T10:04:08.376Z,11.50
2023-02-17T10:06:38.532Z,11.60
2023-02-17T10:09:12.822Z,11.60
2023-02-17T10:11:43.426Z,11.60
2023-02-17T10:14:13.653Z,11.50
2023-02-17T10:16:45.129Z,11.60
2023-02-17T10:19:15.509Z,11.70
2023-02-17T10:21:45.605Z,11.70
2023-02-17T10:24:15.192Z,11.80
2023-02-17T10:26:49.797Z,11.80
2023-02-17T10:29:21.423Z,11.80
2023-02-17T10:31:54.722Z,11.80
2023-02-17T10:34:26.421Z,11.80
2023-02-17T10:36:58.098Z,11.90
2023-02-17T10:39:35.805Z,11.90
2023-02-17T10:42:04.295Z,11.90
2023-02-17T10:44:33.913Z,11.90
2023-02-17T10:47:01.989Z,12.00
2023-02-17T10:49:31.664Z,12.10
2023-02-17T10:52:02.425Z,12.20
2023-02-17T10:54:34.422Z,12.20
2023-02-17T10:57:03.513Z,12.30
2023-02-17T10:59:33.686Z,12.40
2023-02-17T11:02:13.427Z,12.50
2023-02-17T11:04:42.373Z,12.50
2023-02-17T11:07:12.493Z,12.50
2023-02-17T11:09:46.763Z,12.50
2023-02-17T11:12:16.034Z,12.60
2023-02-17T11:14:46.737Z,12.60
2023-02-17T11:17:15.906Z,12.60
2023-02-17T11:19:44.116Z,12.70
2023-02-17T11:22:28.077Z,12.70
2023-02-17T11:25:00.269Z,12.70
2023-02-17T11:27:28.419Z,12.80
2023-02-17T11:30:06.279Z,12.70
2023-02-17T11:32:34.555Z,12.60
2023-02-17T11:35:06.351Z,12.50
2023-02-17T11:37:43.252Z,12.50
2023-02-17T11:40:26.697Z,12.50
2023-02-17T11:43:00.498Z,12.50
2023-02-17T11:45:36.530Z,12.50
2023-02-17T11:48:24.144Z,12.40
2023-02-17T11:50:57.133Z,12.40
2023-02-17T11:53:38.685Z,12.40
2023-02-17T11:56:15.743Z,12.50
2023-02-17T11:59:06.747Z,12.50
2023-02-17T12:01:49.555Z,12.50
2023-02-17T12:04:29.118Z,12.50
2023-02-17T12:07:30.312Z,12.60
2023-02-17T12:10:06.899Z,12.50
2023-02-17T12:12:52.420Z,12.50
2023-02-17T12:15:32.680Z,12.60
2023-02-17T12:18:14.947Z,12.50
2023-02-17T12:20:51.844Z,12.50
2023-02-17T12:23:31.044Z,12.50
2023-02-17T12:26:04.597Z,12.60
2023-02-17T12:28:50.044Z,12.70
2023-02-17T12:31:32.917Z,12.70
2023-02-17T12:34:07.625Z,12.70
2023-02-17T12:36:39.302Z,12.70
2023-02-17T12:39:16.821Z,12.80
2023-02-17T12:41:49.451Z,12.70
2023-02-17T12:44:22.170Z,12.60
2023-02-17T12:46:55.110Z,12.70
2023-02-17T12:49:31.088Z,12.70
2023-02-17T12:52:05.446Z,12.80
2023-02-17T12:54:37.869Z,13.00
2023-02-17T12:57:14.643Z,13.20
2023-02-17T12:59:45.794Z,13.30
2023-02-17T13:02:16.596Z,13.30
2023-02-17T13:04:47.201Z,13.50
2023-02-17T13:07:43.618Z,13.60
2023-02-17T13:10:22.397Z,14.00
2023-02-17T13:12:58.043Z,14.00
2023-02-17T13:15:30.247Z,14.10
2023-02-17T13:18:02.978Z,14.10
2023-02-17T13:20:52.337Z,14.20
2023-02-17T13:23:28.977Z,14.20
2023-02-17T13:26:13.794Z,14.10
2023-02-17T13:28:42.097Z,14.00
2023-02-17T13:31:19.497Z,14.00
2023-02-17T13:33:49.008Z,13.90
2023-02-17T13:36:34.743Z,13.90
2023-02-17T13:39:04.346Z,13.80
2023-02-17T13:41:35.672Z,13.80
2023-02-17T13:44:19.023Z,13.70
2023-02-17T13:46:48.935Z,13.70
2023-02-17T13:49:22.280Z,13.70
2023-02-17T13:51:50.667Z,13.70
2023-02-17T13:54:21.522Z,13.90
2023-02-17T13:56:53.398Z,13.70
2023-02-17T13:59:25.560Z,13.70
2023-02-17T14:01:55.718Z,13.50
2023-02-17T14:04:25.138Z,13.50
2023-02-17T14:06:56.198Z,13.50
2023-02-17T14:09:25.851Z,13.50
2023-02-17T14:11:54.792Z,13.40
2023-02-17T14:14:24.401Z,13.40
2023-02-17T14:17:01.611Z,13.40
2023-02-17T14:19:30.520Z,13.40
2023-02-17T14:21:59.471Z,13.50
2023-02-17T14:24:29.250Z,13.50
2023-02-17T14:26:58.572Z,13.40
2023-02-17T14:29:26.791Z,13.40
2023-02-17T14:31:55.218Z,13.40
2023-02-17T14:34:29.545Z,13.40
2023-02-17T14:37:08.160Z,13.50
2023-02-17T14:39:36.206Z,13.60
2023-02-17T14:42:04.543Z,13.60
2023-02-17T14:44:32.614Z,13.60
2023-02-17T14:47:00.764Z,13.70
2023-02-17T14:49:30.150Z,13.60
2023-02-17T14:51:58.747Z,13.60
2023-02-17T14:54:28.802Z,13.60
2023-02-17T14:57:01.306Z,13.60
2023-02-17T14:59:29.377Z,13.60
2023-02-17T15:01:57.475Z,13.60
2023-02-17T15:04:25.591Z,13.60
2023-02-17T15:06:55.293Z,13.60
2023-02-17T15:09:27.349Z,13.60
2023-02-17T15:11:56.817Z,13.50
2023-02-17T15:14:25.017Z,13.50
2023-02-17T15:16:52.969Z,13.40
2023-02-17T15:19:20.961Z,13.50
2023-02-17T15:21:50.014Z,13.60
2023-02-17T15:24:21.303Z,13.60
2023-02-17T15:26:49.321Z,13.60
2023-02-17T15:29:18.315Z,13.60
2023-02-17T15:31:46.927Z,13.60
2023-02-17T15:34:19.646Z,13.60
2023-02-17T15:36:48.073Z,13.70
2023-02-17T15:39:17.566Z,13.70
2023-02-17T15:41:48.175Z,13.80
2023-02-17T15:44:17.181Z,13.80
2023-02-17T15:46:46.390Z,13.90
2023-02-17T15:49:15.010Z,13.90
2023-02-17T15:51:43.006Z,14.10
2023-02-17T15:54:11.171Z,14.10
2023-02-17T15:56:43.205Z,14.20
2023-02-17T15:59:13.863Z,14.30
2023-02-17T16:01:41.843Z,14.50
2023-02-17T16:04:11.194Z,14.50
2023-02-17T16:06:39.633Z,14.50
2023-02-17T16:09:07.796Z,14.50
2023-02-17T16:11:36.959Z,14.40
2023-02-17T16:14:04.933Z,14.20
2023-02-17T16:16:34.657Z,14.00
2023-02-17T16:19:02.953Z,13.90
2023-02-17T16:21:31.038Z,14.00
2023-02-17T16:24:00.375Z,13.90
2023-02-17T16:26:29.951Z,13.90
2023-02-17T16:28:58.513Z,13.80
2023-02-17T16:31:26.671Z,13.80
2023-02-17T16:34:00.276Z,13.80
2023-02-17T16:36:30.957Z,13.80
2023-02-17T16:38:59.492Z,13.80
2023-02-17T16:41:27.550Z,13.70
2023-02-17T16:43:55.557Z,13.80
2023-02-17T16:46:25.734Z,13.90
2023-02-17T16:48:53.958Z,13.90
2023-02-17T16:51:23.368Z,13.90
2023-02-17T16:53:51.426Z,13.90
2023-02-17T16:56:20.725Z,13.80
2023-02-17T16:58:48.778Z,13.90
2023-02-17T17:01:16.997Z,13.90
2023-02-17T17:03:45.586Z,13.70
2023-02-17T17:06:17.939Z,13.70
2023-02-17T17:08:47.720Z,13.70
2023-02-17T17:11:16.480Z,13.60
2023-02-17T17:13:44.646Z,13.60
2023-02-17T17:16:13.606Z,13.40
2023-02-17T17:18:43.063Z,13.40
2023-02-17T17:21:12.937Z,13.40
2023-02-17T17:23:41.435Z,13.40
2023-02-17T17:26:16.539Z,13.40
2023-02-17T17:28:44.534Z,13.50
2023-02-17T17:31:12.558Z,13.50
2023-02-17T17:33:41.121Z,13.50
2023-02-17T17:36:13.793Z,13.50
2023-02-17T17:38:41.837Z,13.50
2023-02-17T17:41:11.783Z,13.60
2023-02-17T17:43:41.311Z,13.50
2023-02-17T17:46:12.572Z,13.50
2023-02-17T17:48:40.701Z,13.30
2023-02-17T17:51:09.107Z,13.30
2023-02-17T17:53:37.212Z,13.30
2023-02-17T17:56:06.002Z,13.30
2023-02-17T17:58:38.913Z,13.20
2023-02-17T18:01:08.509Z,13.30
2023-02-17T18:03:36.752Z,13.30
2023-02-17T18:06:05.616Z,13.30
2023-02-17T18:08:34.170Z,13.30
2023-02-17T18:11:03.916Z,13.20
2023-02-17T18:13:32.831Z,13.20
2023-02-17T18:16:00.837Z,13.20
2023-02-17T18:18:30.370Z,13.10
2023-02-17T18:20:58.448Z,13.20
2023-02-17T18:23:26.525Z,13.10
2023-02-17T18:25:54.691Z,13.10
2023-02-17T18:28:22.940Z,13.10
2023-02-17T18:30:51.144Z,13.10
2023-02-17T18:33:19.405Z,13.10
2023-02-17T18:35:48.783Z,13.00
2023-02-17T18:38:17.037Z,13.00
2023-02-17T18:40:44.969Z,12.90
2023-02-17T18:43:14.775Z,12.90
2023-02-17T18:45:42.841Z,12.90
2023-02-17T18:48:10.894Z,13.00
2023-02-17T18:50:39.308Z,13.00
2023-02-17T18:53:08.690Z,12.90
2023-02-17T18:55:37.948Z,12.90
2023-02-17T18:58:06.037Z,12.80
2023-02-17T19:00:34.265Z,12.80
2023-02-17T19:03:02.408Z,12.90
2023-02-17T19:05:30.526Z,12.90
2023-02-17T19:07:59.098Z,12.90
2023-02-17T19:10:28.535Z,12.90
2023-02-17T19:12:56.621Z,12.70
2023-02-17T19:15:24.700Z,12.80
2023-02-17T19:17:55.660Z,12.80
2023-02-17T19:20:26.796Z,12.80
2023-02-17T19:22:54.954Z,12.70
2023-02-17T19:25:23.062Z,12.70
2023-02-17T19:27:52.474Z,12.70
2023-02-17T19:30:20.648Z,12.70
2023-02-17T19:32:48.788Z,12.80
2023-02-17T19:35:17.443Z,12.80
2023-02-17T19:37:45.420Z,12.80
2023-02-17T19:40:13.464Z,12.80
2023-02-17T19:42:41.518Z,12.80
2023-02-17T19:45:11.188Z,12.80
2023-02-17T19:47:39.308Z,12.80
2023-02-17T19:50:08.188Z,12.80
2023-02-17T19:52:37.775Z,12.90
2023-02-17T19:55:06.151Z,12.80
2023-02-17T19:57:34.190Z,12.80
2023-02-17T20:00:02.486Z,12.80
2023-02-17T20:02:34.028Z,12.90
2023-02-17T20:05:02.148Z,12.80
2023-02-17T20:07:30.209Z,12.70
2023-02-17T20:09:58.355Z,12.80
2023-02-17T20:12:26.892Z,12.80
2023-02-17T20:14:56.485Z,12.80
2023-02-17T20:17:25.472Z,12.80
2023-02-17T20:19:56.406Z,12.80
2023-02-17T20:22:26.169Z,12.70
2023-02-17T20:24:55.994Z,12.70
2023-02-17T20:27:25.376Z,12.80
2023-02-17T20:29:53.895Z,12.80
2023-02-17T20:32:37.202Z,12.70
2023-02-17T20:35:06.900Z,12.80
2023-02-17T20:37:35.022Z,12.90
2023-02-17T20:40:04.255Z,12.90
2023-02-17T20:42:32.247Z,12.80
2023-02-17T20:45:00.564Z,12.90
2023-02-17T20:47:28.653Z,12.80
2023-02-17T20:49:56.740Z,12.80
2023-02-17T20:52:26.172Z,12.80
2023-02-17T20:54:54.207Z,12.80
2023-02-17T20:57:23.456Z,12.80
2023-02-17T20:59:51.764Z,12.80
2023-02-17T21:02:20.067Z,12.80
2023-02-17T21:04:48.116Z,12.90
2023-02-17T21:07:16.182Z,12.90
2023-02-17T21:09:45.574Z,12.90
2023-02-17T21:12:13.652Z,13.00
2023-02-17T21:14:41.801Z,13.00
2023-02-17T21:17:10.627Z,13.00
2023-02-17T21:19:40.619Z,13.00
2023-02-17T21:22:08.634Z,13.00
2023-02-17T21:24:36.807Z,13.00
2023-02-17T21:27:06.372Z,13.00
2023-02-17T21:29:34.433Z,13.10
2023-02-17T21:32:02.537Z,12.90
2023-02-17T21:34:30.714Z,12.80
2023-02-17T21:36:58.690Z,12.80
2023-02-17T21:39:26.755Z,12.90
2023-02-17T21:41:54.976Z,12.90
2023-02-17T21:44:42.311Z,12.90
2023-02-17T21:47:10.371Z,12.90
2023-02-17T21:49:38.395Z,12.90
2023-02-17T21:52:06.678Z,12.90
2023-02-17T21:54:34.931Z,12.80
2023-02-17T21:57:04.446Z,12.90
2023-02-17T21:59:33.929Z,12.90
2023-02-17T22:02:01.893Z,13.00
2023-02-17T22:04:30.068Z,13.00
2023-02-17T22:06:58.278Z,12.90
2023-02-17T22:09:26.214Z,12.90
2023-02-17T22:11:54.287Z,12.80
2023-02-17T22:14:22.749Z,12.80
2023-02-17T22:16:52.415Z,12.80
2023-02-17T22:19:21.704Z,12.90
2023-02-17T22:21:50.192Z,12.90
2023-02-17T22:24:20.815Z,13.00
2023-02-17T22:26:49.315Z,12.90
2023-02-17T22:29:17.314Z,13.00
2023-02-17T22:31:45.447Z,13.00
2023-02-17T22:34:15.483Z,13.00
2023-02-17T22:36:43.518Z,13.00
2023-02-17T22:39:11.520Z,13.00
2023-02-17T22:41:40.800Z,13.00
2023-02-17T22:44:09.054Z,13.00
2023-02-17T22:46:37.020Z,13.00
2023-02-17T22:49:05.122Z,13.00
2023-02-17T22:51:35.450Z,13.00
2023-02-17T22:54:04.001Z,13.10
2023-02-17T22:56:32.228Z,13.10
2023-02-17T22:59:03.877Z,13.20
2023-02-17T23:01:32.855Z,13.10
2023-02-17T23:04:01.203Z,13.10
2023-02-17T23:06:30.247Z,13.00
2023-02-17T23:09:00.157Z,13.00
2023-02-17T23:11:47.438Z,13.00
2023-02-17T23:14:16.416Z,13.00
2023-02-17T23:16:44.712Z,13.10
2023-02-17T23:19:14.205Z,13.10
2023-02-17T23:21:43.618Z,13.10
2023-02-17T23:24:12.931Z,13.10
2023-02-17T23:26:41.083Z,13.20
2023-02-17T23:29:09.629Z,13.10
2023-02-17T23:31:38.618Z,13.10
2023-02-17T23:34:06.801Z,13.20
2023-02-17T23:36:34.863Z,13.20
2023-02-17T23:39:02.918Z,13.10
2023-02-17T23:41:32.459Z,13.00
2023-02-17T23:44:00.630Z,13.00
2023-02-17T23:46:29.349Z,13.10
2023-02-17T23:48:57.551Z,13.10
2023-02-17T23:51:25.548Z,13.20
2023-02-17T23:53:53.557Z,13.10
2023-02-17T23:56:23.154Z,13.10
2023-02-17T23:58:52.829Z,13.10
